This is the latest recevied weather packets stored in our database for station/object ED5YAW-10. If no packets are shown the sender has not sent any weather packets the latest 10 day(s).
| Time | Temp. | Humidity | Pressure | Rain* | Wind** | Luminosity | Snow |
|---|---|---|---|---|---|---|---|
| 1778153944 | 16.67° C | 58% | 872 hPa | - | - | - | - |
| 1778153344 | 16.67° C | 62% | 872 hPa | - | - | - | - |
| 1778153340 | 16.67° C | 62% | 872 hPa | - | - | - | - |
| 1778152740 | 16.11° C | 64% | 872 hPa | - | - | - | - |
| 1778152736 | 16.11° C | 64% | 872 hPa | - | - | - | - |
| 1778152136 | 15.56° C | 69% | 872 hPa | - | - | - | - |
| 1778152132 | 15.56° C | 69% | 872 hPa | - | - | - | - |
| 1778151532 | 15° C | 73% | 872 hPa | - | - | - | - |
| 1778151527 | 15° C | 73% | 872 hPa | - | - | - | - |
| 1778150927 | 14.44° C | 78% | 872 hPa | - | - | - | - |
| 1778150923 | 14.44° C | 78% | 872 hPa | - | - | - | - |
| 1778150322 | 13.89° C | 87% | 872 hPa | - | - | - | - |
| 1778150318 | 13.89° C | 87% | 872 hPa | - | - | - | - |
| 1778149718 | 12.78° C | 92% | 872 hPa | - | - | - | - |
| 1778149714 | 12.78° C | 92% | 872 hPa | - | - | - | - |
| 1778149112 | 12.78° C | 92% | 872 hPa | - | - | - | - |
| 1778149108 | 12.78° C | 92% | 872 hPa | - | - | - | - |
| 1778148508 | 11.67° C | 98% | 872 hPa | - | - | - | - |
| 1778148504 | 11.67° C | 98% | 872 hPa | - | - | - | - |
| 1778147904 | 11.11° C | 99% | 873 hPa | - | - | - | - |
| 1778147900 | 11.11° C | 99% | 873 hPa | - | - | - | - |
| 1778147300 | 11.11° C | 94% | 873 hPa | - | - | - | - |
| 1778147295 | 11.11° C | 94% | 873 hPa | - | - | - | - |
| 1778146695 | 11.11° C | 91% | 873 hPa | - | - | - | - |
| 1778146691 | 11.11° C | 91% | 873 hPa | - | - | - | - |
* Rain since midnight (hover to see other rain measurements)
** Current wind speed in m/s (hover to see current wind gust speed)